sensor_id;sensor_type;location;lat;lon;timestamp;temperature;humidity
35127;DHT22;21300;52.006;5.798;2022-09-03T00:01:32;20.60;51.20
35127;DHT22;21300;52.006;5.798;2022-09-03T00:04:18;20.60;51.10
35127;DHT22;21300;52.006;5.798;2022-09-03T00:06:54;20.60;51.10
35127;DHT22;21300;52.006;5.798;2022-09-03T00:09:34;20.50;51.20
35127;DHT22;21300;52.006;5.798;2022-09-03T00:12:10;20.50;51.20
35127;DHT22;21300;52.006;5.798;2022-09-03T00:14:54;20.50;51.30
35127;DHT22;21300;52.006;5.798;2022-09-03T00:17:27;20.50;51.40
35127;DHT22;21300;52.006;5.798;2022-09-03T00:19:59;20.40;51.30
35127;DHT22;21300;52.006;5.798;2022-09-03T00:22:34;20.40;51.40
35127;DHT22;21300;52.006;5.798;2022-09-03T00:25:02;20.40;51.40
35127;DHT22;21300;52.006;5.798;2022-09-03T00:27:32;20.40;51.40
35127;DHT22;21300;52.006;5.798;2022-09-03T00:30:03;20.40;51.30
35127;DHT22;21300;52.006;5.798;2022-09-03T00:35:15;20.40;51.20
35127;DHT22;21300;52.006;5.798;2022-09-03T00:37:41;20.40;51.50
35127;DHT22;21300;52.006;5.798;2022-09-03T00:40:19;20.30;51.40
35127;DHT22;21300;52.006;5.798;2022-09-03T00:43:00;20.30;51.40
35127;DHT22;21300;52.006;5.798;2022-09-03T00:45:48;20.30;51.50
35127;DHT22;21300;52.006;5.798;2022-09-03T00:48:25;20.30;51.50
35127;DHT22;21300;52.006;5.798;2022-09-03T00:51:04;20.20;51.50
35127;DHT22;21300;52.006;5.798;2022-09-03T01:09:46;20.20;51.60
35127;DHT22;21300;52.006;5.798;2022-09-03T01:15:26;20.20;51.60
35127;DHT22;21300;52.006;5.798;2022-09-03T01:18:05;20.10;51.60
35127;DHT22;21300;52.006;5.798;2022-09-03T01:21:01;20.10;51.60
35127;DHT22;21300;52.006;5.798;2022-09-03T01:26:30;20.10;51.60
35127;DHT22;21300;52.006;5.798;2022-09-03T01:32:06;20.10;51.50
35127;DHT22;21300;52.006;5.798;2022-09-03T01:43:10;20.00;51.80
35127;DHT22;21300;52.006;5.798;2022-09-03T01:45:52;20.00;51.80
35127;DHT22;21300;52.006;5.798;2022-09-03T01:51:22;19.90;51.90
35127;DHT22;21300;52.006;5.798;2022-09-03T01:54:29;19.90;51.90
35127;DHT22;21300;52.006;5.798;2022-09-03T01:57:18;19.90;51.80
35127;DHT22;21300;52.006;5.798;2022-09-03T01:59:58;19.90;52.00
35127;DHT22;21300;52.006;5.798;2022-09-03T02:02:26;19.90;52.00
35127;DHT22;21300;52.006;5.798;2022-09-03T02:04:59;19.90;52.00
35127;DHT22;21300;52.006;5.798;2022-09-03T02:07:31;19.80;51.90
35127;DHT22;21300;52.006;5.798;2022-09-03T02:10:02;19.80;52.00
35127;DHT22;21300;52.006;5.798;2022-09-03T02:12:29;19.80;52.00
35127;DHT22;21300;52.006;5.798;2022-09-03T02:14:59;19.80;52.00
35127;DHT22;21300;52.006;5.798;2022-09-03T02:17:28;19.80;52.00
35127;DHT22;21300;52.006;5.798;2022-09-03T02:19:54;19.80;52.10
35127;DHT22;21300;52.006;5.798;2022-09-03T02:22:19;19.70;52.00
35127;DHT22;21300;52.006;5.798;2022-09-03T02:24:45;19.80;52.10
35127;DHT22;21300;52.006;5.798;2022-09-03T02:27:10;19.70;52.10
35127;DHT22;21300;52.006;5.798;2022-09-03T02:29:36;19.70;52.20
35127;DHT22;21300;52.006;5.798;2022-09-03T02:32:02;19.70;52.10
35127;DHT22;21300;52.006;5.798;2022-09-03T02:34:28;19.70;52.60
35127;DHT22;21300;52.006;5.798;2022-09-03T02:36:54;19.70;52.20
35127;DHT22;21300;52.006;5.798;2022-09-03T02:39:20;19.60;52.10
35127;DHT22;21300;52.006;5.798;2022-09-03T02:41:52;19.60;52.20
35127;DHT22;21300;52.006;5.798;2022-09-03T02:44:30;19.60;52.20
35127;DHT22;21300;52.006;5.798;2022-09-03T02:47:00;19.60;52.20
35127;DHT22;21300;52.006;5.798;2022-09-03T02:49:26;19.60;52.20
35127;DHT22;21300;52.006;5.798;2022-09-03T02:51:57;19.60;52.30
35127;DHT22;21300;52.006;5.798;2022-09-03T02:54:26;19.60;52.30
35127;DHT22;21300;52.006;5.798;2022-09-03T02:56:52;19.50;52.10
35127;DHT22;21300;52.006;5.798;2022-09-03T02:59:18;19.50;52.20
35127;DHT22;21300;52.006;5.798;2022-09-03T03:01:44;19.50;52.10
35127;DHT22;21300;52.006;5.798;2022-09-03T03:04:09;19.50;52.30
35127;DHT22;21300;52.006;5.798;2022-09-03T03:06:35;19.50;52.40
35127;DHT22;21300;52.006;5.798;2022-09-03T03:09:00;19.50;52.30
35127;DHT22;21300;52.006;5.798;2022-09-03T03:11:30;19.50;52.20
35127;DHT22;21300;52.006;5.798;2022-09-03T03:13:56;19.40;52.30
35127;DHT22;21300;52.006;5.798;2022-09-03T03:16:21;19.50;52.30
35127;DHT22;21300;52.006;5.798;2022-09-03T03:18:47;19.40;52.10
35127;DHT22;21300;52.006;5.798;2022-09-03T03:21:17;19.40;52.30
35127;DHT22;21300;52.006;5.798;2022-09-03T03:23:43;19.40;52.40
35127;DHT22;21300;52.006;5.798;2022-09-03T03:26:11;19.40;52.40
35127;DHT22;21300;52.006;5.798;2022-09-03T03:28:37;19.40;52.40
35127;DHT22;21300;52.006;5.798;2022-09-03T03:31:08;19.30;52.40
35127;DHT22;21300;52.006;5.798;2022-09-03T03:33:34;19.30;52.40
35127;DHT22;21300;52.006;5.798;2022-09-03T03:36:27;19.30;52.40
35127;DHT22;21300;52.006;5.798;2022-09-03T03:38:55;19.30;52.40
35127;DHT22;21300;52.006;5.798;2022-09-03T03:41:25;19.30;52.50
35127;DHT22;21300;52.006;5.798;2022-09-03T03:43:57;19.20;52.40
35127;DHT22;21300;52.006;5.798;2022-09-03T03:46:24;19.20;52.40
35127;DHT22;21300;52.006;5.798;2022-09-03T03:48:51;19.20;52.00
35127;DHT22;21300;52.006;5.798;2022-09-03T03:51:17;19.20;51.80
35127;DHT22;21300;52.006;5.798;2022-09-03T03:53:43;19.20;52.00
35127;DHT22;21300;52.006;5.798;2022-09-03T03:56:13;19.20;52.00
35127;DHT22;21300;52.006;5.798;2022-09-03T03:58:39;19.20;52.00
35127;DHT22;21300;52.006;5.798;2022-09-03T04:01:16;19.20;52.10
35127;DHT22;21300;52.006;5.798;2022-09-03T04:03:42;19.20;52.20
35127;DHT22;21300;52.006;5.798;2022-09-03T04:06:09;19.20;52.30
35127;DHT22;21300;52.006;5.798;2022-09-03T04:08:37;19.10;52.10
35127;DHT22;21300;52.006;5.798;2022-09-03T04:11:04;19.10;52.30
35127;DHT22;21300;52.006;5.798;2022-09-03T04:13:49;19.10;52.30
35127;DHT22;21300;52.006;5.798;2022-09-03T04:16:20;19.10;52.40
35127;DHT22;21300;52.006;5.798;2022-09-03T04:18:46;19.10;52.30
35127;DHT22;21300;52.006;5.798;2022-09-03T04:21:18;19.10;52.40
35127;DHT22;21300;52.006;5.798;2022-09-03T04:23:45;19.00;52.40
35127;DHT22;21300;52.006;5.798;2022-09-03T04:26:14;19.10;52.40
35127;DHT22;21300;52.006;5.798;2022-09-03T04:28:41;19.10;52.50
35127;DHT22;21300;52.006;5.798;2022-09-03T04:31:08;19.00;52.40
35127;DHT22;21300;52.006;5.798;2022-09-03T04:33:36;19.00;52.40
35127;DHT22;21300;52.006;5.798;2022-09-03T04:36:07;19.00;52.40
35127;DHT22;21300;52.006;5.798;2022-09-03T04:38:33;19.00;53.00
35127;DHT22;21300;52.006;5.798;2022-09-03T04:40:59;18.90;52.50
35127;DHT22;21300;52.006;5.798;2022-09-03T04:43:26;19.00;52.60
35127;DHT22;21300;52.006;5.798;2022-09-03T04:45:58;19.00;52.60
35127;DHT22;21300;52.006;5.798;2022-09-03T04:48:28;19.00;52.50
35127;DHT22;21300;52.006;5.798;2022-09-03T04:51:00;18.90;52.50
35127;DHT22;21300;52.006;5.798;2022-09-03T04:53:34;18.70;52.80
35127;DHT22;21300;52.006;5.798;2022-09-03T04:56:00;18.60;52.90
35127;DHT22;21300;52.006;5.798;2022-09-03T04:58:25;18.50;52.80
35127;DHT22;21300;52.006;5.798;2022-09-03T05:00:51;18.50;52.90
35127;DHT22;21300;52.006;5.798;2022-09-03T05:03:17;18.40;52.90
35127;DHT22;21300;52.006;5.798;2022-09-03T05:05:51;18.40;53.00
35127;DHT22;21300;52.006;5.798;2022-09-03T05:08:17;18.40;53.10
35127;DHT22;21300;52.006;5.798;2022-09-03T05:10:42;18.40;53.10
35127;DHT22;21300;52.006;5.798;2022-09-03T05:13:08;18.40;53.30
35127;DHT22;21300;52.006;5.798;2022-09-03T05:15:34;18.40;53.40
35127;DHT22;21300;52.006;5.798;2022-09-03T05:18:00;18.40;53.60
35127;DHT22;21300;52.006;5.798;2022-09-03T05:20:29;18.30;53.20
35127;DHT22;21300;52.006;5.798;2022-09-03T05:22:56;18.30;53.50
35127;DHT22;21300;52.006;5.798;2022-09-03T05:25:23;18.30;53.50
35127;DHT22;21300;52.006;5.798;2022-09-03T05:27:48;18.30;53.60
35127;DHT22;21300;52.006;5.798;2022-09-03T05:30:15;18.30;53.50
35127;DHT22;21300;52.006;5.798;2022-09-03T05:32:41;18.30;53.70
35127;DHT22;21300;52.006;5.798;2022-09-03T05:35:07;18.30;53.70
35127;DHT22;21300;52.006;5.798;2022-09-03T05:37:33;18.30;53.60
35127;DHT22;21300;52.006;5.798;2022-09-03T05:39:59;18.20;53.70
35127;DHT22;21300;52.006;5.798;2022-09-03T05:42:24;18.30;53.60
35127;DHT22;21300;52.006;5.798;2022-09-03T05:44:52;18.20;53.80
35127;DHT22;21300;52.006;5.798;2022-09-03T05:47:17;18.20;53.80
35127;DHT22;21300;52.006;5.798;2022-09-03T05:49:43;18.10;53.90
35127;DHT22;21300;52.006;5.798;2022-09-03T05:52:08;18.00;53.90
35127;DHT22;21300;52.006;5.798;2022-09-03T05:54:34;17.90;54.00
35127;DHT22;21300;52.006;5.798;2022-09-03T05:57:00;17.90;54.20
35127;DHT22;21300;52.006;5.798;2022-09-03T05:59:26;17.80;54.40
35127;DHT22;21300;52.006;5.798;2022-09-03T06:04:35;17.70;54.60
35127;DHT22;21300;52.006;5.798;2022-09-03T06:07:01;17.70;54.70
35127;DHT22;21300;52.006;5.798;2022-09-03T06:09:27;17.70;54.70
35127;DHT22;21300;52.006;5.798;2022-09-03T06:11:52;17.70;54.60
35127;DHT22;21300;52.006;5.798;2022-09-03T06:14:19;17.60;54.70
35127;DHT22;21300;52.006;5.798;2022-09-03T06:16:46;17.60;54.70
35127;DHT22;21300;52.006;5.798;2022-09-03T06:19:16;17.60;54.80
35127;DHT22;21300;52.006;5.798;2022-09-03T06:21:44;17.60;54.80
35127;DHT22;21300;52.006;5.798;2022-09-03T06:24:20;17.60;55.00
35127;DHT22;21300;52.006;5.798;2022-09-03T06:26:48;17.50;55.00
35127;DHT22;21300;52.006;5.798;2022-09-03T06:29:14;17.50;55.10
35127;DHT22;21300;52.006;5.798;2022-09-03T06:31:40;17.50;54.90
35127;DHT22;21300;52.006;5.798;2022-09-03T06:34:05;17.60;55.00
35127;DHT22;21300;52.006;5.798;2022-09-03T06:36:31;17.50;54.90
35127;DHT22;21300;52.006;5.798;2022-09-03T06:38:57;17.50;55.00
35127;DHT22;21300;52.006;5.798;2022-09-03T06:41:26;17.50;55.20
35127;DHT22;21300;52.006;5.798;2022-09-03T06:43:59;17.50;55.20
35127;DHT22;21300;52.006;5.798;2022-09-03T06:46:28;17.50;55.40
35127;DHT22;21300;52.006;5.798;2022-09-03T06:48:54;17.50;55.30
35127;DHT22;21300;52.006;5.798;2022-09-03T06:51:22;17.50;55.30
35127;DHT22;21300;52.006;5.798;2022-09-03T06:53:50;17.50;55.30
35127;DHT22;21300;52.006;5.798;2022-09-03T06:56:21;17.50;55.30
35127;DHT22;21300;52.006;5.798;2022-09-03T06:59:03;17.60;55.30
35127;DHT22;21300;52.006;5.798;2022-09-03T07:01:30;17.50;55.30
35127;DHT22;21300;52.006;5.798;2022-09-03T07:03:58;17.50;55.40
35127;DHT22;21300;52.006;5.798;2022-09-03T07:06:27;17.60;55.40
35127;DHT22;21300;52.006;5.798;2022-09-03T07:08:53;17.60;55.30
35127;DHT22;21300;52.006;5.798;2022-09-03T07:11:21;17.60;55.30
35127;DHT22;21300;52.006;5.798;2022-09-03T07:13:49;17.60;55.30
35127;DHT22;21300;52.006;5.798;2022-09-03T07:16:19;17.70;55.30
35127;DHT22;21300;52.006;5.798;2022-09-03T07:18:45;17.70;55.40
35127;DHT22;21300;52.006;5.798;2022-09-03T07:21:25;17.60;55.10
35127;DHT22;21300;52.006;5.798;2022-09-03T07:23:52;17.60;55.40
35127;DHT22;21300;52.006;5.798;2022-09-03T07:26:29;17.60;55.50
35127;DHT22;21300;52.006;5.798;2022-09-03T07:28:57;17.70;55.40
35127;DHT22;21300;52.006;5.798;2022-09-03T07:33:56;17.80;55.30
35127;DHT22;21300;52.006;5.798;2022-09-03T07:36:23;17.80;55.50
35127;DHT22;21300;52.006;5.798;2022-09-03T07:38:49;17.80;55.30
35127;DHT22;21300;52.006;5.798;2022-09-03T07:41:15;17.80;55.30
35127;DHT22;21300;52.006;5.798;2022-09-03T07:43:44;17.90;55.40
35127;DHT22;21300;52.006;5.798;2022-09-03T07:46:18;17.90;55.30
35127;DHT22;21300;52.006;5.798;2022-09-03T07:48:51;17.90;55.30
35127;DHT22;21300;52.006;5.798;2022-09-03T07:51:19;17.90;55.20
35127;DHT22;21300;52.006;5.798;2022-09-03T07:53:47;18.00;55.30
35127;DHT22;21300;52.006;5.798;2022-09-03T07:56:13;17.90;55.10
35127;DHT22;21300;52.006;5.798;2022-09-03T07:58:40;18.00;55.30
35127;DHT22;21300;52.006;5.798;2022-09-03T08:01:11;18.00;55.30
35127;DHT22;21300;52.006;5.798;2022-09-03T08:03:38;18.00;55.20
35127;DHT22;21300;52.006;5.798;2022-09-03T08:06:07;18.10;55.40
35127;DHT22;21300;52.006;5.798;2022-09-03T08:08:34;18.10;55.20
35127;DHT22;21300;52.006;5.798;2022-09-03T08:13:39;18.40;54.00
35127;DHT22;21300;52.006;5.798;2022-09-03T08:16:06;18.40;54.30
35127;DHT22;21300;52.006;5.798;2022-09-03T08:18:33;18.40;54.40
35127;DHT22;21300;52.006;5.798;2022-09-03T08:21:03;18.50;54.30
35127;DHT22;21300;52.006;5.798;2022-09-03T08:23:31;18.50;54.70
35127;DHT22;21300;52.006;5.798;2022-09-03T08:25:58;18.50;54.60
35127;DHT22;21300;52.006;5.798;2022-09-03T08:28:25;18.60;54.20
35127;DHT22;21300;52.006;5.798;2022-09-03T08:30:50;18.70;53.80
35127;DHT22;21300;52.006;5.798;2022-09-03T08:33:16;18.80;53.80
35127;DHT22;21300;52.006;5.798;2022-09-03T08:35:41;18.80;53.70
35127;DHT22;21300;52.006;5.798;2022-09-03T08:38:07;18.80;53.80
35127;DHT22;21300;52.006;5.798;2022-09-03T08:40:36;18.80;53.70
35127;DHT22;21300;52.006;5.798;2022-09-03T08:43:22;18.80;53.80
35127;DHT22;21300;52.006;5.798;2022-09-03T08:45:48;18.80;53.80
35127;DHT22;21300;52.006;5.798;2022-09-03T08:48:19;18.80;53.80
35127;DHT22;21300;52.006;5.798;2022-09-03T08:50:49;18.80;54.00
35127;DHT22;21300;52.006;5.798;2022-09-03T08:53:32;18.90;54.10
35127;DHT22;21300;52.006;5.798;2022-09-03T08:56:08;18.90;54.10
35127;DHT22;21300;52.006;5.798;2022-09-03T08:58:36;18.90;54.10
35127;DHT22;21300;52.006;5.798;2022-09-03T09:12:00;19.10;54.10
35127;DHT22;21300;52.006;5.798;2022-09-03T09:20:29;19.20;53.90
35127;DHT22;21300;52.006;5.798;2022-09-03T09:23:03;19.30;53.80
35127;DHT22;21300;52.006;5.798;2022-09-03T09:25:31;19.30;53.80
35127;DHT22;21300;52.006;5.798;2022-09-03T09:28:21;19.30;53.90
35127;DHT22;21300;52.006;5.798;2022-09-03T09:30:49;19.30;54.10
35127;DHT22;21300;52.006;5.798;2022-09-03T09:33:17;19.40;54.10
35127;DHT22;21300;52.006;5.798;2022-09-03T09:35:45;19.40;54.00
35127;DHT22;21300;52.006;5.798;2022-09-03T09:38:11;19.50;54.00
35127;DHT22;21300;52.006;5.798;2022-09-03T09:40:39;19.50;54.10
35127;DHT22;21300;52.006;5.798;2022-09-03T09:43:14;19.50;53.90
35127;DHT22;21300;52.006;5.798;2022-09-03T09:45:49;19.60;54.30
35127;DHT22;21300;52.006;5.798;2022-09-03T09:48:37;19.60;54.10
35127;DHT22;21300;52.006;5.798;2022-09-03T09:51:16;19.70;54.20
35127;DHT22;21300;52.006;5.798;2022-09-03T09:53:42;19.70;54.30
35127;DHT22;21300;52.006;5.798;2022-09-03T09:56:20;19.80;54.40
35127;DHT22;21300;52.006;5.798;2022-09-03T09:58:46;19.80;54.20
35127;DHT22;21300;52.006;5.798;2022-09-03T10:01:21;19.90;54.10
35127;DHT22;21300;52.006;5.798;2022-09-03T10:04:20;19.90;53.90
35127;DHT22;21300;52.006;5.798;2022-09-03T10:06:53;20.00;54.10
35127;DHT22;21300;52.006;5.798;2022-09-03T10:09:30;20.00;54.10
35127;DHT22;21300;52.006;5.798;2022-09-03T10:12:21;20.10;54.20
35127;DHT22;21300;52.006;5.798;2022-09-03T10:15:00;20.10;54.20
35127;DHT22;21300;52.006;5.798;2022-09-03T10:17:42;20.20;53.90
35127;DHT22;21300;52.006;5.798;2022-09-03T10:20:17;20.20;54.00
35127;DHT22;21300;52.006;5.798;2022-09-03T10:22:56;20.30;53.90
35127;DHT22;21300;52.006;5.798;2022-09-03T10:28:38;20.40;54.20
35127;DHT22;21300;52.006;5.798;2022-09-03T10:33:50;20.50;54.20
35127;DHT22;21300;52.006;5.798;2022-09-03T10:39:14;20.60;54.10
35127;DHT22;21300;52.006;5.798;2022-09-03T10:41:59;20.70;54.20
35127;DHT22;21300;52.006;5.798;2022-09-03T10:50:16;20.80;54.10
35127;DHT22;21300;52.006;5.798;2022-09-03T10:56:00;20.90;53.80
35127;DHT22;21300;52.006;5.798;2022-09-03T11:06:29;21.20;53.70
35127;DHT22;21300;52.006;5.798;2022-09-03T11:09:02;21.20;53.30
35127;DHT22;21300;52.006;5.798;2022-09-03T11:11:41;21.30;53.60
35127;DHT22;21300;52.006;5.798;2022-09-03T11:14:10;21.30;53.10
35127;DHT22;21300;52.006;5.798;2022-09-03T11:16:44;21.40;53.10
35127;DHT22;21300;52.006;5.798;2022-09-03T11:19:16;21.40;53.10
35127;DHT22;21300;52.006;5.798;2022-09-03T11:21:42;21.50;53.50
35127;DHT22;21300;52.006;5.798;2022-09-03T11:24:11;21.50;53.10
35127;DHT22;21300;52.006;5.798;2022-09-03T11:26:39;21.60;52.80
35127;DHT22;21300;52.006;5.798;2022-09-03T11:31:47;21.70;52.60
35127;DHT22;21300;52.006;5.798;2022-09-03T11:37:23;21.70;53.30
35127;DHT22;21300;52.006;5.798;2022-09-03T11:40:04;21.80;53.30
35127;DHT22;21300;52.006;5.798;2022-09-03T11:42:34;21.90;53.10
35127;DHT22;21300;52.006;5.798;2022-09-03T11:47:49;21.90;53.10
35127;DHT22;21300;52.006;5.798;2022-09-03T11:50:24;21.90;52.60
35127;DHT22;21300;52.006;5.798;2022-09-03T11:52:52;22.00;52.80
35127;DHT22;21300;52.006;5.798;2022-09-03T11:55:30;22.10;52.80
35127;DHT22;21300;52.006;5.798;2022-09-03T11:57:56;22.10;52.60
35127;DHT22;21300;52.006;5.798;2022-09-03T12:00:23;22.20;52.50
35127;DHT22;21300;52.006;5.798;2022-09-03T12:02:55;22.20;53.00
35127;DHT22;21300;52.006;5.798;2022-09-03T12:05:56;22.20;52.50
35127;DHT22;21300;52.006;5.798;2022-09-03T12:14:49;22.40;52.50
35127;DHT22;21300;52.006;5.798;2022-09-03T12:18:05;22.40;52.40
35127;DHT22;21300;52.006;5.798;2022-09-03T12:20:43;22.50;52.10
35127;DHT22;21300;52.006;5.798;2022-09-03T12:23:11;22.60;52.00
35127;DHT22;21300;52.006;5.798;2022-09-03T12:25:45;22.60;51.60
35127;DHT22;21300;52.006;5.798;2022-09-03T12:28:16;22.70;51.30
35127;DHT22;21300;52.006;5.798;2022-09-03T12:30:42;22.60;51.80
35127;DHT22;21300;52.006;5.798;2022-09-03T12:33:08;22.70;52.40
35127;DHT22;21300;52.006;5.798;2022-09-03T12:35:37;22.70;52.00
35127;DHT22;21300;52.006;5.798;2022-09-03T12:38:03;22.80;52.10
35127;DHT22;21300;52.006;5.798;2022-09-03T12:40:29;22.80;52.20
35127;DHT22;21300;52.006;5.798;2022-09-03T12:43:11;22.80;51.70
35127;DHT22;21300;52.006;5.798;2022-09-03T12:45:47;22.80;51.70
35127;DHT22;21300;52.006;5.798;2022-09-03T12:48:18;22.90;52.20
35127;DHT22;21300;52.006;5.798;2022-09-03T12:50:45;22.90;52.10
35127;DHT22;21300;52.006;5.798;2022-09-03T12:53:14;22.90;51.60
35127;DHT22;21300;52.006;5.798;2022-09-03T12:55:45;22.90;52.10
35127;DHT22;21300;52.006;5.798;2022-09-03T12:58:20;23.00;52.10
35127;DHT22;21300;52.006;5.798;2022-09-03T13:01:12;23.10;51.10
35127;DHT22;21300;52.006;5.798;2022-09-03T13:03:53;23.10;51.10
35127;DHT22;21300;52.006;5.798;2022-09-03T13:06:25;23.20;51.20
35127;DHT22;21300;52.006;5.798;2022-09-03T13:09:02;23.20;51.20
35127;DHT22;21300;52.006;5.798;2022-09-03T13:11:31;23.20;51.20
35127;DHT22;21300;52.006;5.798;2022-09-03T13:14:08;23.20;51.30
35127;DHT22;21300;52.006;5.798;2022-09-03T13:22:24;23.30;51.30
35127;DHT22;21300;52.006;5.798;2022-09-03T13:30:21;23.30;50.70
35127;DHT22;21300;52.006;5.798;2022-09-03T13:33:00;23.40;50.60
35127;DHT22;21300;52.006;5.798;2022-09-03T13:37:57;23.40;50.90
35127;DHT22;21300;52.006;5.798;2022-09-03T13:40:36;23.40;50.80
35127;DHT22;21300;52.006;5.798;2022-09-03T13:46:07;23.50;50.50
35127;DHT22;21300;52.006;5.798;2022-09-03T13:48:43;23.50;50.60
35127;DHT22;21300;52.006;5.798;2022-09-03T13:51:38;23.50;50.60
35127;DHT22;21300;52.006;5.798;2022-09-03T13:54:22;23.50;50.70
35127;DHT22;21300;52.006;5.798;2022-09-03T13:56:56;23.50;50.60
35127;DHT22;21300;52.006;5.798;2022-09-03T14:02:30;23.50;50.90
35127;DHT22;21300;52.006;5.798;2022-09-03T14:05:04;23.50;51.00
35127;DHT22;21300;52.006;5.798;2022-09-03T14:13:07;23.50;50.60
35127;DHT22;21300;52.006;5.798;2022-09-03T14:15:46;23.60;50.70
35127;DHT22;21300;52.006;5.798;2022-09-03T14:21:17;23.60;50.30
35127;DHT22;21300;52.006;5.798;2022-09-03T14:26:33;23.70;50.40
35127;DHT22;21300;52.006;5.798;2022-09-03T14:37:30;23.70;50.30
35127;DHT22;21300;52.006;5.798;2022-09-03T14:40:28;23.70;50.10
35127;DHT22;21300;52.006;5.798;2022-09-03T14:43:04;23.70;50.10
35127;DHT22;21300;52.006;5.798;2022-09-03T15:00:06;23.70;50.10
35127;DHT22;21300;52.006;5.798;2022-09-03T15:11:17;23.80;49.70
35127;DHT22;21300;52.006;5.798;2022-09-03T15:19:09;23.80;49.80
35127;DHT22;21300;52.006;5.798;2022-09-03T15:21:41;23.80;49.90
35127;DHT22;21300;52.006;5.798;2022-09-03T15:24:20;23.80;50.20
35127;DHT22;21300;52.006;5.798;2022-09-03T15:32:17;23.80;50.30
35127;DHT22;21300;52.006;5.798;2022-09-03T15:37:53;23.80;49.80
35127;DHT22;21300;52.006;5.798;2022-09-03T15:40:36;23.80;49.90
35127;DHT22;21300;52.006;5.798;2022-09-03T15:43:16;23.80;50.20
35127;DHT22;21300;52.006;5.798;2022-09-03T15:56:41;23.80;50.40
35127;DHT22;21300;52.006;5.798;2022-09-03T15:59:22;23.80;50.40
35127;DHT22;21300;52.006;5.798;2022-09-03T16:02:19;23.80;50.50
35127;DHT22;21300;52.006;5.798;2022-09-03T16:10:47;23.80;50.50
35127;DHT22;21300;52.006;5.798;2022-09-03T16:16:10;23.80;50.40
35127;DHT22;21300;52.006;5.798;2022-09-03T16:18:52;23.80;50.40
35127;DHT22;21300;52.006;5.798;2022-09-03T16:21:31;23.80;50.50
35127;DHT22;21300;52.006;5.798;2022-09-03T16:24:02;23.80;50.60
35127;DHT22;21300;52.006;5.798;2022-09-03T16:26:31;23.80;50.80
35127;DHT22;21300;52.006;5.798;2022-09-03T16:29:06;23.80;50.50
35127;DHT22;21300;52.006;5.798;2022-09-03T16:36:52;23.80;50.60
35127;DHT22;21300;52.006;5.798;2022-09-03T16:42:08;23.80;50.80
35127;DHT22;21300;52.006;5.798;2022-09-03T16:52:52;23.80;50.90
35127;DHT22;21300;52.006;5.798;2022-09-03T16:58:19;23.80;50.80
35127;DHT22;21300;52.006;5.798;2022-09-03T17:03:42;23.80;51.00
35127;DHT22;21300;52.006;5.798;2022-09-03T17:06:29;23.80;51.10
35127;DHT22;21300;52.006;5.798;2022-09-03T17:09:22;23.80;51.10
35127;DHT22;21300;52.006;5.798;2022-09-03T17:15:29;23.80;51.00
35127;DHT22;21300;52.006;5.798;2022-09-03T17:21:13;23.80;51.10
35127;DHT22;21300;52.006;5.798;2022-09-03T17:29:02;23.80;51.20
35127;DHT22;21300;52.006;5.798;2022-09-03T17:31:49;23.70;51.20
35127;DHT22;21300;52.006;5.798;2022-09-03T17:34:39;23.70;51.20
35127;DHT22;21300;52.006;5.798;2022-09-03T17:40:51;23.70;51.20
35127;DHT22;21300;52.006;5.798;2022-09-03T17:43:29;23.70;51.20
35127;DHT22;21300;52.006;5.798;2022-09-03T17:46:19;23.70;51.20
35127;DHT22;21300;52.006;5.798;2022-09-03T17:48:57;23.70;51.20
35127;DHT22;21300;52.006;5.798;2022-09-03T17:51:44;23.70;51.20
35127;DHT22;21300;52.006;5.798;2022-09-03T17:54:40;23.70;51.20
35127;DHT22;21300;52.006;5.798;2022-09-03T17:57:26;23.70;51.30
35127;DHT22;21300;52.006;5.798;2022-09-03T18:02:36;23.70;51.20
35127;DHT22;21300;52.006;5.798;2022-09-03T18:05:14;23.60;51.30
35127;DHT22;21300;52.006;5.798;2022-09-03T18:07:49;23.70;51.30
35127;DHT22;21300;52.006;5.798;2022-09-03T18:15:53;23.60;51.30
35127;DHT22;21300;52.006;5.798;2022-09-03T18:18:27;23.60;51.20
35127;DHT22;21300;52.006;5.798;2022-09-03T18:20:57;23.60;51.20
35127;DHT22;21300;52.006;5.798;2022-09-03T18:30:14;23.50;51.30
35127;DHT22;21300;52.006;5.798;2022-09-03T18:32:59;23.50;51.30
35127;DHT22;21300;52.006;5.798;2022-09-03T18:35:44;23.50;51.30
35127;DHT22;21300;52.006;5.798;2022-09-03T18:38:38;23.50;51.30
35127;DHT22;21300;52.006;5.798;2022-09-03T18:44:46;23.50;51.30
35127;DHT22;21300;52.006;5.798;2022-09-03T18:47:48;23.50;51.30
35127;DHT22;21300;52.006;5.798;2022-09-03T18:50:57;23.40;51.20
35127;DHT22;21300;52.006;5.798;2022-09-03T19:00:44;23.40;51.30
35127;DHT22;21300;52.006;5.798;2022-09-03T19:03:44;23.30;51.30
35127;DHT22;21300;52.006;5.798;2022-09-03T19:07:00;23.30;51.30
35127;DHT22;21300;52.006;5.798;2022-09-03T19:12:35;23.30;51.30
35127;DHT22;21300;52.006;5.798;2022-09-03T19:15:25;23.30;51.30
35127;DHT22;21300;52.006;5.798;2022-09-03T19:24:00;23.20;51.40
35127;DHT22;21300;52.006;5.798;2022-09-03T19:26:57;23.20;51.40
35127;DHT22;21300;52.006;5.798;2022-09-03T19:29:58;23.20;51.40
35127;DHT22;21300;52.006;5.798;2022-09-03T19:33:12;23.10;51.40
35127;DHT22;21300;52.006;5.798;2022-09-03T19:36:27;23.10;51.50
35127;DHT22;21300;52.006;5.798;2022-09-03T19:48:05;23.10;51.50
35127;DHT22;21300;52.006;5.798;2022-09-03T19:51:19;23.00;51.50
35127;DHT22;21300;52.006;5.798;2022-09-03T19:54:05;23.00;51.50
35127;DHT22;21300;52.006;5.798;2022-09-03T19:56:53;22.90;51.50
35127;DHT22;21300;52.006;5.798;2022-09-03T19:59:41;22.90;51.50
35127;DHT22;21300;52.006;5.798;2022-09-03T20:02:28;22.90;51.50
35127;DHT22;21300;52.006;5.798;2022-09-03T20:05:21;22.90;51.60
35127;DHT22;21300;52.006;5.798;2022-09-03T20:08:07;22.90;51.60
35127;DHT22;21300;52.006;5.798;2022-09-03T20:10:54;22.80;51.60
35127;DHT22;21300;52.006;5.798;2022-09-03T20:13:20;22.80;51.60
35127;DHT22;21300;52.006;5.798;2022-09-03T20:15:52;22.80;51.70
35127;DHT22;21300;52.006;5.798;2022-09-03T20:42:53;22.60;52.00
35127;DHT22;21300;52.006;5.798;2022-09-03T20:48:14;22.50;52.00
35127;DHT22;21300;52.006;5.798;2022-09-03T20:50:53;22.50;52.10
35127;DHT22;21300;52.006;5.798;2022-09-03T20:53:46;22.50;52.10
35127;DHT22;21300;52.006;5.798;2022-09-03T20:59:10;22.40;52.10
35127;DHT22;21300;52.006;5.798;2022-09-03T21:07:14;22.40;52.30
35127;DHT22;21300;52.006;5.798;2022-09-03T21:10:11;22.30;52.30
35127;DHT22;21300;52.006;5.798;2022-09-03T21:13:11;22.30;52.30
35127;DHT22;21300;52.006;5.798;2022-09-03T21:23:38;22.20;52.60
35127;DHT22;21300;52.006;5.798;2022-09-03T21:26:28;22.20;52.60
35127;DHT22;21300;52.006;5.798;2022-09-03T21:29:22;22.10;52.60
35127;DHT22;21300;52.006;5.798;2022-09-03T21:34:24;22.10;52.80
35127;DHT22;21300;52.006;5.798;2022-09-03T21:36:54;22.00;52.70
35127;DHT22;21300;52.006;5.798;2022-09-03T21:39:27;22.00;52.80